• Join FlightAware (Why Join?)
  • Login
  • US Flag 
04:39AM EDT


 

Airport Tracker/Info


-or-


 

Live Flight TrackerFlight Track Log ✈ EJA951 ✈ 13-Mar-2014 ✈ KBMG - KJFK

Flight Track Log - Related Links

Times and Time Zones

All times are in EDT time to prevent confusion due to time zone crossing. See the EJA951 flight status page for this flight to view local times or setup timezone preferences in your user account.

Time Position Orientation Groundspeed Altitude Reporting Facility
EDT Latitude Longitude Course Direction KTS MPH feet Rate Location/Type
05:23PM 39.1167 -86.5667 62° Northeast 183 211 3,100  Level Indianapolis TRACON
05:25PM 39.2000 -86.4833 38° Northeast 289 333 4,700 780 Climbing Indianapolis TRACON
05:25PM 39.2667 -86.4500 21° North 262 302 5,000 1,440 Climbing Indianapolis TRACON
05:27PM 39.3353 -86.4114 24° Northeast 258 297 7,900 2,400 Climbing Indianapolis Center
05:28PM 39.3803 -86.3272 55° Northeast 287 330 10,600 1,860 Climbing Indianapolis Center
05:29PM 39.5149 -85.7833 62° Northeast  Level FlightAware Approximate
05:29PM 39.4242 -86.2217 62° Northeast 323 372 11,800  Level Indianapolis Center
05:30PM 39.4831 -86.0781 62° Northeast 373 429 14,600 2,220 Climbing Indianapolis Center
05:31PM 39.5325 -85.9567 62° Northeast 379 436 16,400 1,740 Climbing Indianapolis Center
05:32PM 39.5833 -85.8294 63° Northeast 395 455 18,200 1,680 Climbing Indianapolis Center
05:33PM 39.6392 -85.6986 61° Northeast 412 474 19,900 1,860 Climbing Indianapolis Center
05:34PM 39.7025 -85.5311 64° Northeast 430 495 22,100 2,160 Climbing Indianapolis Center
05:35PM 39.7614 -85.3894 62° Northeast 442 509 24,500 1,860 Climbing Indianapolis Center
05:36PM 39.8175 -85.2439 63° Northeast 446 513 26,000 1,200 Climbing Indianapolis Center
05:37PM 39.8758 -85.0892 64° Northeast 469 540 27,000 600 Climbing Indianapolis Center
05:38PM 39.9192 -84.8900 74° East 512 589 27,300 960 Climbing Indianapolis Center
05:39PM 39.9603 -84.7094 73° East 517 595 29,100 1,560 Climbing Indianapolis Center
05:40PM 39.9994 -84.5303 74° East 517 595 30,600 1,200 Climbing Indianapolis Center
05:41PM 40.0403 -84.3458 74° East 523 602 31,600 960 Climbing Indianapolis Center
05:42PM 40.0814 -84.1606 74° East 526 605 32,600 1,020 Climbing Indianapolis Center
05:43PM 40.1561 -83.9567 64° Northeast 514 592 33,800 960 Climbing Indianapolis Center
05:44PM 40.2350 -83.7997 57° Northeast 511 588 34,700 540 Climbing Indianapolis Center
05:45PM 40.3153 -83.6411 56° Northeast 513 590 35,000 120 Climbing Indianapolis Center
05:46PM 40.3967 -83.4828 56° Northeast 516 594 35,000  Level Indianapolis Center
05:47PM 40.4758 -83.3222 57° Northeast 519 597 35,000  Level Indianapolis Center
05:48PM 40.5656 -83.1408 57° Northeast 520 598 35,000  Level Indianapolis Center
05:49PM 40.6453 -82.9794 57° Northeast 520 598 35,000  Level Indianapolis Center
05:50PM 40.6944 -82.7908 71° East 536 617 35,000  Level Indianapolis Center
05:52PM 40.7392 -82.5978 73° East 542 624 35,000  Level Indianapolis Center
05:53PM 40.7839 -82.4058 73° East 543 625 35,000  Level Indianapolis Center
05:54PM 40.8289 -82.2136 73° East 543 625 35,000  Level Indianapolis Center
05:55PM 40.8803 -81.9892 73° East 546 628 35,000  Level Cleveland Center
05:56PM 40.9233 -81.7953 74° East 546 628 35,000  Level Cleveland Center
05:57PM 40.9675 -81.6003 73° East 552 635 35,000  Level Cleveland Center
05:58PM 41.0100 -81.4061 74° East 552 635 35,000  Level Cleveland Center
05:59PM 41.0600 -81.1786 74° East 551 634 35,000  Level Cleveland Center
06:00PM 41.1022 -80.9769 74° East 549 632 35,000  Level Cleveland Center
06:01PM 41.1436 -80.7894 74° East 548 631 35,000  Level Cleveland Center
06:02PM 41.1856 -80.5928 74° East 549 632 35,000  Level Cleveland Center
06:03PM 41.2283 -80.3961 74° East 550 633 35,000  Level Cleveland Center
06:04PM 41.2706 -80.1928 74° East 550 633 35,000  Level Cleveland Center
06:05PM 41.3167 -79.9747 74° East 549 632 35,000  Level Cleveland Center
06:06PM 41.3561 -79.7811 75° East 546 628 35,000  Level Cleveland Center
06:07PM 41.3953 -79.5872 75° East 546 628 35,000  Level Cleveland Center
06:08PM 41.4339 -79.3950 75° East 542 624 35,000  Level Cleveland Center
06:09PM 41.4725 -79.2039 75° East 534 615 35,000  Level Cleveland Center
06:10PM 41.5175 -78.9711 75° East 536 617 35,000  Level Cleveland Center
06:11PM 41.5553 -78.7764 75° East 537 618 35,000  Level Cleveland Center
06:12PM 41.5925 -78.5811 76° East 538 619 35,000  Level Cleveland Center
06:13PM 41.6303 -78.3847 76° East 539 620 35,000  Level Cleveland Center
06:14PM 41.6672 -78.1889 76° East 540 621 35,000 -420 Level Cleveland Center
06:15PM 41.7042 -77.9928 76° East 542 624 34,200 -900 Descending Cleveland Center
06:16PM 41.7461 -77.7742 76° East 548 631 33,200 -600 Descending New York Center
06:17PM 41.7761 -77.5797 78° East 536 617 33,000 -120 Descending New York Center
06:18PM 41.7394 -77.3814 104° East 528 608 33,000  Level New York Center
06:19PM 41.6878 -77.1847 109° East 539 620 33,000  Level New York Center
06:20PM 41.6342 -76.9797 109° East 559 643 33,000  Level New York Center
06:21PM 41.5794 -76.7831 110° East 564 649 33,000  Level New York Center
06:22PM 41.5175 -76.5642 111° Southeast 569 655 33,000  Level New York Center
06:23PM 41.4644 -76.3658 110° East 569 655 33,000  Level New York Center
06:24PM 41.4100 -76.1925 113° Southeast 569 655 33,000 -240 Level New York Center
06:25PM 41.3567 -75.9919 109° East 569 655 32,600 -1,620 Descending New York Center
06:26PM 41.3042 -75.8058 111° Southeast 556 640 29,800 -2,760 Descending New York Center
06:27PM 41.2475 -75.6167 112° Southeast 551 634 27,000 -2,820 Descending New York Center
06:28PM 41.1900 -75.4442 114° Southeast 527 606 24,300 -2,340 Descending New York Center
06:29PM 41.1339 -75.2778 114° Southeast 509 586 22,400 -1,620 Descending New York Center
06:30PM 41.0778 -75.1117 114° Southeast 497 572 21,100 -1,260 Descending New York Center
06:31PM 41.0239 -74.9239 111° Southeast 491 565 20,000 -1,080 Descending New York Center
06:32PM 40.9881 -74.7597 106° East 485 558 19,000 -540 Descending New York Center
06:33PM 40.9569 -74.6258 107° East 442 509 19,000  Level New York Center
06:34PM 40.9242 -74.4842 107° East 394 453 19,000  Level New York Center
06:35PM 40.9003 -74.3756 106° East 347 399 19,000  Level New York Center
06:36PM 40.8833 -74.2833 104° East 354 407 19,000  Level New York TRACON
06:37PM 40.8500 -74.1667 111° Southeast 357 411 19,000 -420 Level New York TRACON
06:38PM 40.7667 -74.1000 149° Southeast 358 412 18,200 -1,380 Descending New York TRACON
06:39PM 40.6833 -74.0667 163° South 342 394 16,300 -2,100 Descending New York TRACON
06:40PM 40.5833 -74.0333 166° South 339 390 14,100 -1,680 Descending New York TRACON
06:41PM 40.5000 -74.0000 163° South 331 381 13,000 -780 Descending New York TRACON
06:42PM 40.4167 -73.9500 155° Southeast 328 377 12,600 -1,320 Descending New York TRACON
06:43PM 40.3333 -73.8833 149° Southeast 321 369 10,300 -2,700 Descending New York TRACON
06:44PM 40.3333 -73.8000 90° East 279 321 7,200 -3,120 Descending New York TRACON
06:45PM 40.3833 -73.7500 37° Northeast 228 262 4,400 -2,340 Descending New York TRACON
06:46PM 40.4333 -73.7000 37° Northeast 225 259 2,600 -1,260 Descending New York TRACON
06:47PM 40.4833 -73.6667 27° Northeast 231 266 2,100 -360 Descending New York TRACON
06:48PM 40.5333 -73.6500 14° North 176 203 2,000 -60 Descending New York TRACON
06:49PM 40.5667 -73.6667 339° North 153 176 2,000 -240 Level New York TRACON
06:50PM 40.6000 -73.7000 323° Northwest 104 120 1,600 -480 Descending New York TRACON
06:51PM 40.6167 -73.7333 303° West 106 122 1,100 -600 Descending New York TRACON
06:52PM 40.6167 -73.7667 270° West 115 132 400 -720 Descending New York TRACON
06:54PM 40.6398 -73.7789 338° Northwest  Level Estimated